createdAt,value
2022-10-28T00:00:10.102Z,12.5
2022-10-28T00:05:10.088Z,12.5
2022-10-28T00:10:10.098Z,12.4
2022-10-28T00:15:10.091Z,12.4
2022-10-28T00:20:10.170Z,12.2
2022-10-28T00:25:10.081Z,12.1
2022-10-28T00:30:10.093Z,12
2022-10-28T00:35:10.087Z,12
2022-10-28T00:40:10.091Z,12
2022-10-28T00:45:10.088Z,12
2022-10-28T00:50:10.096Z,12
2022-10-28T00:55:10.097Z,11.9
2022-10-28T01:00:10.094Z,11.7
2022-10-28T01:05:10.102Z,11.6
2022-10-28T01:10:10.087Z,11.7
2022-10-28T01:15:10.089Z,11.7
2022-10-28T01:20:10.091Z,11.6
2022-10-28T01:25:10.092Z,11.6
2022-10-28T01:30:10.100Z,11.6
2022-10-28T01:35:10.090Z,11.6
2022-10-28T01:40:10.091Z,11.7
2022-10-28T01:45:10.086Z,11.8
2022-10-28T01:50:10.097Z,11.9
2022-10-28T01:55:10.087Z,11.9
2022-10-28T02:00:10.089Z,11.9
2022-10-28T02:05:10.102Z,11.8
2022-10-28T02:10:10.087Z,11.8
2022-10-28T02:15:10.085Z,12.4
2022-10-28T02:20:10.104Z,12.3
2022-10-28T02:25:10.104Z,12.2
2022-10-28T02:30:10.104Z,12.3
2022-10-28T02:35:10.102Z,12
2022-10-28T02:40:10.098Z,12.2
2022-10-28T02:45:10.095Z,12.1
2022-10-28T02:50:10.101Z,12
2022-10-28T02:55:10.094Z,11.9
2022-10-28T03:00:10.103Z,11.9
2022-10-28T03:05:10.086Z,11.8
2022-10-28T03:10:10.098Z,11.8
2022-10-28T03:15:10.090Z,11.7
2022-10-28T03:20:10.089Z,11.6
2022-10-28T03:25:10.085Z,11.5
2022-10-28T03:30:10.087Z,11.5
2022-10-28T03:35:10.082Z,11.5
2022-10-28T03:40:10.093Z,11.6
2022-10-28T03:45:10.080Z,11.7
2022-10-28T03:50:10.103Z,11.7
2022-10-28T03:55:10.097Z,11.7
2022-10-28T04:00:10.097Z,12
2022-10-28T04:05:10.098Z,12
2022-10-28T04:10:10.091Z,12
2022-10-28T04:15:10.089Z,11.9
2022-10-28T04:20:10.095Z,11.9
2022-10-28T04:25:10.141Z,12
2022-10-28T04:30:10.094Z,12.1
2022-10-28T04:35:10.089Z,11.9
2022-10-28T04:40:10.099Z,11.9
2022-10-28T04:45:10.094Z,11.9
2022-10-28T04:50:10.090Z,12.1
2022-10-28T04:55:10.086Z,12.1
2022-10-28T05:00:10.092Z,12.1
2022-10-28T05:05:10.165Z,12.2
2022-10-28T05:10:10.134Z,12.2
2022-10-28T05:15:10.093Z,12.3
2022-10-28T05:20:10.107Z,12.2
2022-10-28T05:25:10.094Z,12.1
2022-10-28T05:30:10.086Z,12.2
2022-10-28T05:35:10.085Z,12.2
2022-10-28T05:40:10.101Z,12.2
2022-10-28T05:45:10.096Z,12.1
2022-10-28T05:50:10.101Z,12.2
2022-10-28T05:55:10.082Z,12.2
2022-10-28T06:00:10.101Z,12.2
2022-10-28T06:05:10.084Z,12.1
2022-10-28T06:10:10.093Z,12.1
2022-10-28T06:15:08.549Z,12.1
2022-10-28T06:20:08.565Z,12
2022-10-28T06:25:08.574Z,12
2022-10-28T06:30:08.572Z,12
2022-10-28T06:35:08.577Z,11.9
2022-10-28T06:40:08.584Z,11.9
2022-10-28T06:45:08.613Z,12
2022-10-28T06:50:10.098Z,12.1
2022-10-28T06:55:10.110Z,12.1
2022-10-28T07:00:10.112Z,12.3
2022-10-28T07:05:10.106Z,12.5
2022-10-28T07:10:10.119Z,12.5
2022-10-28T07:15:10.129Z,12.6
2022-10-28T07:20:10.125Z,12.9
2022-10-28T07:25:10.130Z,12.9
2022-10-28T07:30:10.142Z,13
2022-10-28T07:35:10.133Z,13.2
2022-10-28T07:40:10.153Z,13.2
2022-10-28T07:45:10.127Z,13.2
2022-10-28T07:50:10.135Z,13.2
2022-10-28T07:55:10.123Z,13.3
2022-10-28T08:00:10.139Z,13.5
2022-10-28T08:05:10.134Z,13.6
2022-10-28T08:10:10.112Z,13.8
2022-10-28T08:15:10.113Z,14.2
2022-10-28T08:20:10.100Z,15.1
2022-10-28T08:25:10.083Z,16.4
2022-10-28T08:30:10.103Z,16.4
2022-10-28T08:35:10.096Z,16.1
2022-10-28T08:40:10.101Z,15.6
2022-10-28T08:45:14.619Z,15.7
2022-10-28T08:50:10.094Z,15.6
2022-10-28T08:55:10.091Z,15.4
2022-10-28T09:00:10.100Z,15.2
2022-10-28T09:05:10.086Z,15.2
2022-10-28T09:10:10.096Z,15.4
2022-10-28T09:15:10.102Z,15.7
2022-10-28T09:20:10.107Z,15.9
2022-10-28T09:25:10.101Z,16.1
2022-10-28T09:30:10.109Z,15.8
2022-10-28T09:35:10.090Z,15.9
2022-10-28T09:40:10.097Z,15.8
2022-10-28T09:45:10.089Z,15.9
2022-10-28T09:50:10.097Z,16.2
2022-10-28T09:55:10.088Z,16.6
2022-10-28T10:00:10.098Z,17.1
2022-10-28T10:05:13.257Z,17.5
2022-10-28T10:10:10.102Z,17.5
2022-10-28T10:15:10.089Z,18.2
2022-10-28T10:20:10.116Z,18.7
2022-10-28T10:25:10.116Z,18.9
2022-10-28T10:30:10.127Z,18.7
2022-10-28T10:35:10.110Z,18.8
2022-10-28T10:40:10.117Z,19.2
2022-10-28T10:45:10.111Z,19.6
2022-10-28T10:50:10.115Z,20.3
2022-10-28T10:55:10.102Z,20.5
2022-10-28T11:00:10.100Z,19.6
2022-10-28T11:05:10.093Z,19
2022-10-28T11:10:10.103Z,19.3
2022-10-28T11:15:10.107Z,19.2
2022-10-28T11:20:10.111Z,19.4
2022-10-28T11:25:10.096Z,19.8
2022-10-28T11:30:10.096Z,20.3
2022-10-28T11:35:10.099Z,20.4
2022-10-28T11:40:10.105Z,20.9
2022-10-28T11:45:10.099Z,21.3
2022-10-28T11:50:10.111Z,21.6
2022-10-28T11:55:10.110Z,21.1
2022-10-28T12:00:10.112Z,21.4
2022-10-28T12:05:10.120Z,21.4
2022-10-28T12:10:10.112Z,21.4
2022-10-28T12:15:10.094Z,21.7
2022-10-28T12:20:10.098Z,21.9
2022-10-28T12:25:10.195Z,21.9
2022-10-28T12:30:10.099Z,22.1
2022-10-28T12:35:10.087Z,21.7
2022-10-28T12:40:10.095Z,21.5
2022-10-28T12:45:10.097Z,21.4
2022-10-28T12:50:10.099Z,21.3
2022-10-28T12:55:10.136Z,21.3
2022-10-28T13:00:10.245Z,21.3
2022-10-28T13:05:10.093Z,21.3
2022-10-28T13:10:10.232Z,21.5
2022-10-28T13:15:10.179Z,21.7
2022-10-28T13:20:10.148Z,22.1
2022-10-28T13:25:10.101Z,22.4
2022-10-28T13:30:10.124Z,22.5
2022-10-28T13:35:10.101Z,22.6
2022-10-28T13:40:10.107Z,22.6
2022-10-28T13:45:10.092Z,22.6
2022-10-28T13:50:10.211Z,22.5
2022-10-28T13:55:10.093Z,22.5
2022-10-28T14:00:10.097Z,22.1
2022-10-28T14:05:10.090Z,21.9
2022-10-28T14:10:11.639Z,21.8
2022-10-28T14:15:10.095Z,21.6
2022-10-28T14:20:10.090Z,21.3
2022-10-28T14:25:10.095Z,21.2
2022-10-28T14:30:10.104Z,21.1
2022-10-28T14:35:10.089Z,20.9
2022-10-28T14:40:10.107Z,20.7
2022-10-28T14:45:10.092Z,20.6
2022-10-28T14:50:10.109Z,20.5
2022-10-28T14:55:10.098Z,20.5
2022-10-28T15:00:10.364Z,20.4
2022-10-28T15:05:10.098Z,19.8
2022-10-28T15:10:10.106Z,19.6
2022-10-28T15:15:10.088Z,19.5
2022-10-28T15:20:10.089Z,19.4
2022-10-28T15:25:10.094Z,19.4
2022-10-28T15:30:10.108Z,19.3
2022-10-28T15:35:10.100Z,19.2
2022-10-28T15:40:12.189Z,18.7
2022-10-28T15:45:10.091Z,18.6
2022-10-28T15:50:10.185Z,18.5
2022-10-28T15:55:10.095Z,18.3
2022-10-28T16:00:10.115Z,18.3
2022-10-28T16:05:10.106Z,18.4
2022-10-28T16:10:10.101Z,18.3
2022-10-28T16:15:10.096Z,18.5
2022-10-28T16:20:13.866Z,18.9
2022-10-28T16:25:10.101Z,19.2
2022-10-28T16:30:10.139Z,19
2022-10-28T16:35:10.087Z,19.1
2022-10-28T16:40:25.148Z,19
2022-10-28T16:45:10.087Z,19
2022-10-28T16:50:10.092Z,19.1
2022-10-28T16:55:10.100Z,19.1
2022-10-28T17:00:10.102Z,19
2022-10-28T17:05:10.081Z,19
2022-10-28T17:10:10.088Z,19.1
2022-10-28T17:15:10.086Z,19
2022-10-28T17:20:10.094Z,18.9
2022-10-28T17:25:10.086Z,18.9
2022-10-28T17:30:10.161Z,19
2022-10-28T17:35:10.086Z,19.1
2022-10-28T17:40:10.102Z,18.9
2022-10-28T17:45:10.094Z,18.5
2022-10-28T17:50:10.090Z,18.4
2022-10-28T17:55:10.263Z,18.4
2022-10-28T18:00:10.097Z,18.3
2022-10-28T18:05:10.097Z,18.3
2022-10-28T18:10:10.103Z,18.3
2022-10-28T18:15:10.085Z,18.3
2022-10-28T18:20:10.114Z,18.2
2022-10-28T18:25:10.087Z,18.2
2022-10-28T18:30:10.089Z,18
2022-10-28T18:35:10.088Z,18.1
2022-10-28T18:40:10.094Z,18.1
2022-10-28T18:45:10.081Z,18.1
2022-10-28T18:50:10.104Z,18.3
2022-10-28T18:55:10.089Z,18.6
2022-10-28T19:00:17.714Z,18.7
2022-10-28T19:05:10.103Z,18.6
2022-10-28T19:10:10.102Z,18.6
2022-10-28T19:15:10.098Z,18.5
2022-10-28T19:20:10.098Z,18.5
2022-10-28T19:25:10.090Z,18.4
2022-10-28T19:30:12.343Z,18.1
2022-10-28T19:35:10.084Z,17.8
2022-10-28T19:40:10.113Z,17.7
2022-10-28T19:45:10.088Z,17.9
2022-10-28T19:50:10.093Z,17.9
2022-10-28T19:55:14.598Z,18
2022-10-28T20:00:10.089Z,17.8
2022-10-28T20:05:10.099Z,17.7
2022-10-28T20:10:10.088Z,17.4
2022-10-28T20:15:10.088Z,17.4
2022-10-28T20:20:10.097Z,17.4
2022-10-28T20:25:10.081Z,17.2
2022-10-28T20:30:10.094Z,16.1
2022-10-28T20:35:10.088Z,15.5
2022-10-28T20:45:10.099Z,16.7
2022-10-28T20:50:10.110Z,16.7
2022-10-28T20:55:10.101Z,15.5
2022-10-28T21:00:10.106Z,15.1
2022-10-28T21:05:10.091Z,15
2022-10-28T21:10:10.097Z,14.9
2022-10-28T21:15:10.113Z,14.8
2022-10-28T21:20:10.102Z,14.7
2022-10-28T21:25:10.101Z,14.8
2022-10-28T21:30:10.147Z,14.8
2022-10-28T21:35:10.099Z,14.5
2022-10-28T21:40:10.104Z,14.2
2022-10-28T21:45:10.100Z,14.2
2022-10-28T21:50:10.101Z,14.2
2022-10-28T21:55:14.854Z,14.3
2022-10-28T22:00:10.108Z,14.1
2022-10-28T22:05:10.096Z,14.1
2022-10-28T22:10:10.101Z,14
2022-10-28T22:15:10.110Z,14
2022-10-28T22:20:10.108Z,14
2022-10-28T22:25:10.440Z,14
2022-10-28T22:30:10.131Z,14
2022-10-28T22:35:10.103Z,13.9
2022-10-28T22:40:10.098Z,13.8
2022-10-28T22:45:10.102Z,13.8
2022-10-28T22:50:10.110Z,13.7
2022-10-28T22:55:10.095Z,13.6
2022-10-28T23:00:10.187Z,13.5
2022-10-28T23:05:10.105Z,13.5
2022-10-28T23:10:10.125Z,13.6
2022-10-28T23:15:10.096Z,13.6
2022-10-28T23:20:10.114Z,13.6
2022-10-28T23:25:10.102Z,13.6
2022-10-28T23:30:10.110Z,13.6
2022-10-28T23:35:10.120Z,13.6
2022-10-28T23:45:10.107Z,13.5
2022-10-28T23:50:10.097Z,13.5
2022-10-28T23:55:10.100Z,13.4
